Lindsborg, Kansas
Current Conditions -  °F | °C
As of 10:53 PM on Friday 28 Nov 2014 (Local Time) from KSLN Reporting Station
Clear Clear  
Wind Chill: 44°   Ceiling: Unl
Heat Index: 49°   Visibility: 10mi
Dew Point: 36°   Wind: 14mph
Humidity: 61%   Direction: 190°S
Pressure: 29.71"   Gusts: NA
Location:  38.57°N, 97.67°W
Report Text: KSLN 290453Z 19012KT 10SM CLR 09/02 A2971 RMK AO2 SLP060 T00940022
Loading
Personal Weather Stations






























Interactive Weather Map New forecast layout! Learn more

10-Day Weather Forecast

Advertisements
Track Severe Weather on mobile